sensor_id;sensor_type;location;lat;lon;timestamp;P1;durP1;ratioP1;P2;durP2;ratioP2
24301;SDS011;12421;49.732;20.078;2024-03-02T00:02:01;33.10;;;19.10;;
24301;SDS011;12421;49.732;20.078;2024-03-02T00:12:04;30.60;;;18.40;;
24301;SDS011;12421;49.732;20.078;2024-03-02T00:22:08;29.60;;;18.20;;
24301;SDS011;12421;49.732;20.078;2024-03-02T00:32:12;35.50;;;20.80;;
24301;SDS011;12421;49.732;20.078;2024-03-02T00:42:16;36.10;;;18.30;;
24301;SDS011;12421;49.732;20.078;2024-03-02T00:52:20;30.90;;;18.80;;
24301;SDS011;12421;49.732;20.078;2024-03-02T01:02:23;33.00;;;18.20;;
24301;SDS011;12421;49.732;20.078;2024-03-02T01:12:26;25.50;;;17.20;;
24301;SDS011;12421;49.732;20.078;2024-03-02T01:22:29;31.70;;;18.80;;
24301;SDS011;12421;49.732;20.078;2024-03-02T01:32:32;28.50;;;17.50;;
24301;SDS011;12421;49.732;20.078;2024-03-02T01:42:36;29.30;;;18.80;;
24301;SDS011;12421;49.732;20.078;2024-03-02T01:52:40;27.60;;;17.10;;
24301;SDS011;12421;49.732;20.078;2024-03-02T02:02:44;27.90;;;17.20;;
24301;SDS011;12421;49.732;20.078;2024-03-02T02:12:48;23.80;;;16.00;;
24301;SDS011;12421;49.732;20.078;2024-03-02T02:22:55;25.30;;;15.50;;
24301;SDS011;12421;49.732;20.078;2024-03-02T02:33:13;30.30;;;16.90;;
24301;SDS011;12421;49.732;20.078;2024-03-02T02:43:16;28.80;;;14.60;;
24301;SDS011;12421;49.732;20.078;2024-03-02T02:53:19;27.20;;;16.20;;
24301;SDS011;12421;49.732;20.078;2024-03-02T03:03:22;24.20;;;14.20;;
24301;SDS011;12421;49.732;20.078;2024-03-02T03:13:26;22.00;;;14.60;;
24301;SDS011;12421;49.732;20.078;2024-03-02T03:23:29;23.00;;;15.70;;
24301;SDS011;12421;49.732;20.078;2024-03-02T03:33:33;22.10;;;15.20;;
24301;SDS011;12421;49.732;20.078;2024-03-02T03:43:36;28.80;;;16.40;;
24301;SDS011;12421;49.732;20.078;2024-03-02T03:53:39;25.90;;;14.70;;
24301;SDS011;12421;49.732;20.078;2024-03-02T04:03:42;21.50;;;13.80;;
24301;SDS011;12421;49.732;20.078;2024-03-02T04:13:45;20.30;;;13.50;;
24301;SDS011;12421;49.732;20.078;2024-03-02T04:23:48;21.20;;;13.10;;
24301;SDS011;12421;49.732;20.078;2024-03-02T04:33:52;22.10;;;14.80;;
24301;SDS011;12421;49.732;20.078;2024-03-02T04:43:55;20.80;;;14.10;;
24301;SDS011;12421;49.732;20.078;2024-03-02T04:53:58;20.00;;;14.40;;
24301;SDS011;12421;49.732;20.078;2024-03-02T05:04:02;26.20;;;14.60;;
24301;SDS011;12421;49.732;20.078;2024-03-02T05:14:06;23.30;;;14.10;;
24301;SDS011;12421;49.732;20.078;2024-03-02T05:24:09;26.20;;;13.60;;
24301;SDS011;12421;49.732;20.078;2024-03-02T05:34:12;24.40;;;13.80;;
24301;SDS011;12421;49.732;20.078;2024-03-02T05:44:16;22.00;;;13.70;;
24301;SDS011;12421;49.732;20.078;2024-03-02T05:54:19;25.60;;;13.60;;
24301;SDS011;12421;49.732;20.078;2024-03-02T06:04:22;22.60;;;15.30;;
24301;SDS011;12421;49.732;20.078;2024-03-02T06:14:26;20.70;;;14.10;;
24301;SDS011;12421;49.732;20.078;2024-03-02T06:24:29;27.20;;;13.90;;
24301;SDS011;12421;49.732;20.078;2024-03-02T06:34:32;26.40;;;16.80;;
24301;SDS011;12421;49.732;20.078;2024-03-02T06:44:36;28.00;;;15.00;;
24301;SDS011;12421;49.732;20.078;2024-03-02T06:54:39;24.90;;;14.20;;
24301;SDS011;12421;49.732;20.078;2024-03-02T07:04:42;23.90;;;17.50;;
24301;SDS011;12421;49.732;20.078;2024-03-02T07:14:46;23.40;;;15.80;;
24301;SDS011;12421;49.732;20.078;2024-03-02T07:25:14;29.60;;;18.10;;
24301;SDS011;12421;49.732;20.078;2024-03-02T07:35:20;53.50;;;34.30;;
24301;SDS011;12421;49.732;20.078;2024-03-02T07:45:24;51.70;;;29.80;;
24301;SDS011;12421;49.732;20.078;2024-03-02T07:55:28;43.10;;;27.30;;
24301;SDS011;12421;49.732;20.078;2024-03-02T08:05:31;36.30;;;25.60;;
24301;SDS011;12421;49.732;20.078;2024-03-02T08:15:34;29.00;;;18.80;;
24301;SDS011;12421;49.732;20.078;2024-03-02T08:25:38;39.00;;;22.80;;
24301;SDS011;12421;49.732;20.078;2024-03-02T08:35:41;27.20;;;17.50;;
24301;SDS011;12421;49.732;20.078;2024-03-02T08:45:45;29.00;;;18.10;;
24301;SDS011;12421;49.732;20.078;2024-03-02T08:55:48;25.50;;;16.40;;
24301;SDS011;12421;49.732;20.078;2024-03-02T09:05:51;35.10;;;19.10;;
24301;SDS011;12421;49.732;20.078;2024-03-02T09:15:55;36.00;;;20.10;;
24301;SDS011;12421;49.732;20.078;2024-03-02T09:25:58;41.10;;;23.90;;
24301;SDS011;12421;49.732;20.078;2024-03-02T09:36:02;38.20;;;24.70;;
24301;SDS011;12421;49.732;20.078;2024-03-02T09:46:06;31.90;;;19.80;;
24301;SDS011;12421;49.732;20.078;2024-03-02T09:56:11;31.10;;;19.40;;
24301;SDS011;12421;49.732;20.078;2024-03-02T10:06:21;27.40;;;17.80;;
24301;SDS011;12421;49.732;20.078;2024-03-02T10:16:28;26.90;;;15.90;;
24301;SDS011;12421;49.732;20.078;2024-03-02T10:26:33;26.20;;;17.60;;
24301;SDS011;12421;49.732;20.078;2024-03-02T10:36:37;26.90;;;15.30;;
24301;SDS011;12421;49.732;20.078;2024-03-02T10:46:44;31.60;;;18.50;;
24301;SDS011;12421;49.732;20.078;2024-03-02T10:56:50;34.20;;;21.20;;
24301;SDS011;12421;49.732;20.078;2024-03-02T11:07:09;33.30;;;18.50;;
24301;SDS011;12421;49.732;20.078;2024-03-02T11:17:14;30.10;;;16.00;;
24301;SDS011;12421;49.732;20.078;2024-03-02T11:37:51;39.30;;;24.20;;
24301;SDS011;12421;49.732;20.078;2024-03-02T11:47:56;43.90;;;24.90;;
24301;SDS011;12421;49.732;20.078;2024-03-02T11:58:01;42.90;;;26.50;;
24301;SDS011;12421;49.732;20.078;2024-03-02T12:08:07;60.70;;;42.90;;
24301;SDS011;12421;49.732;20.078;2024-03-02T12:18:11;37.70;;;26.00;;
24301;SDS011;12421;49.732;20.078;2024-03-02T12:28:14;39.60;;;27.00;;
24301;SDS011;12421;49.732;20.078;2024-03-02T12:38:18;47.80;;;30.00;;
24301;SDS011;12421;49.732;20.078;2024-03-02T12:48:23;54.60;;;35.30;;
24301;SDS011;12421;49.732;20.078;2024-03-02T12:58:26;46.00;;;29.70;;
24301;SDS011;12421;49.732;20.078;2024-03-02T13:08:30;52.40;;;35.60;;
24301;SDS011;12421;49.732;20.078;2024-03-02T13:18:33;50.70;;;33.30;;
24301;SDS011;12421;49.732;20.078;2024-03-02T13:28:36;35.90;;;23.70;;
24301;SDS011;12421;49.732;20.078;2024-03-02T13:38:40;24.80;;;15.60;;
24301;SDS011;12421;49.732;20.078;2024-03-02T13:48:43;28.40;;;15.80;;
24301;SDS011;12421;49.732;20.078;2024-03-02T13:58:47;28.80;;;18.80;;
24301;SDS011;12421;49.732;20.078;2024-03-02T14:08:52;31.60;;;20.40;;
24301;SDS011;12421;49.732;20.078;2024-03-02T14:18:55;37.80;;;24.30;;
24301;SDS011;12421;49.732;20.078;2024-03-02T14:28:59;38.50;;;24.90;;
24301;SDS011;12421;49.732;20.078;2024-03-02T14:39:05;30.10;;;20.40;;
24301;SDS011;12421;49.732;20.078;2024-03-02T14:49:13;41.30;;;20.60;;
24301;SDS011;12421;49.732;20.078;2024-03-02T14:59:17;19.70;;;10.70;;
24301;SDS011;12421;49.732;20.078;2024-03-02T15:09:20;12.10;;;6.30;;
24301;SDS011;12421;49.732;20.078;2024-03-02T15:19:24;38.70;;;24.60;;
24301;SDS011;12421;49.732;20.078;2024-03-02T15:29:28;20.10;;;12.90;;
24301;SDS011;12421;49.732;20.078;2024-03-02T15:39:33;10.70;;;6.50;;
24301;SDS011;12421;49.732;20.078;2024-03-02T15:49:37;15.30;;;8.80;;
24301;SDS011;12421;49.732;20.078;2024-03-02T15:59:43;12.80;;;8.10;;
24301;SDS011;12421;49.732;20.078;2024-03-02T16:09:47;9.30;;;6.00;;
24301;SDS011;12421;49.732;20.078;2024-03-02T16:19:50;11.90;;;7.30;;
24301;SDS011;12421;49.732;20.078;2024-03-02T16:29:54;15.00;;;6.20;;
24301;SDS011;12421;49.732;20.078;2024-03-02T16:39:57;10.60;;;6.10;;
24301;SDS011;12421;49.732;20.078;2024-03-02T16:50:01;19.50;;;10.00;;
24301;SDS011;12421;49.732;20.078;2024-03-02T17:00:06;22.60;;;12.40;;
24301;SDS011;12421;49.732;20.078;2024-03-02T17:10:11;14.70;;;8.20;;
24301;SDS011;12421;49.732;20.078;2024-03-02T17:20:15;13.00;;;8.10;;
24301;SDS011;12421;49.732;20.078;2024-03-02T17:30:18;23.10;;;14.90;;
24301;SDS011;12421;49.732;20.078;2024-03-02T17:40:23;23.10;;;14.60;;
24301;SDS011;12421;49.732;20.078;2024-03-02T17:50:29;43.80;;;26.90;;
24301;SDS011;12421;49.732;20.078;2024-03-02T18:00:32;24.50;;;13.90;;
24301;SDS011;12421;49.732;20.078;2024-03-02T18:10:35;14.10;;;8.50;;
24301;SDS011;12421;49.732;20.078;2024-03-02T18:20:48;17.40;;;9.50;;
24301;SDS011;12421;49.732;20.078;2024-03-02T18:30:55;18.00;;;10.20;;
24301;SDS011;12421;49.732;20.078;2024-03-02T18:40:58;43.60;;;25.80;;
24301;SDS011;12421;49.732;20.078;2024-03-02T18:51:06;26.60;;;14.80;;
24301;SDS011;12421;49.732;20.078;2024-03-02T19:01:10;13.20;;;7.10;;
24301;SDS011;12421;49.732;20.078;2024-03-02T19:11:17;15.50;;;7.00;;
24301;SDS011;12421;49.732;20.078;2024-03-02T19:21:24;10.30;;;7.50;;
24301;SDS011;12421;49.732;20.078;2024-03-02T19:31:27;11.60;;;7.70;;
24301;SDS011;12421;49.732;20.078;2024-03-02T19:41:30;29.50;;;17.20;;
24301;SDS011;12421;49.732;20.078;2024-03-02T19:51:36;27.90;;;14.60;;
24301;SDS011;12421;49.732;20.078;2024-03-02T20:01:41;83.90;;;42.80;;
24301;SDS011;12421;49.732;20.078;2024-03-02T20:11:44;89.30;;;51.50;;
24301;SDS011;12421;49.732;20.078;2024-03-02T20:21:47;90.80;;;51.60;;
24301;SDS011;12421;49.732;20.078;2024-03-02T20:31:52;92.70;;;54.50;;
24301;SDS011;12421;49.732;20.078;2024-03-02T20:41:56;101.60;;;55.90;;
24301;SDS011;12421;49.732;20.078;2024-03-02T20:52:00;87.70;;;54.30;;
24301;SDS011;12421;49.732;20.078;2024-03-02T21:02:06;88.50;;;49.50;;
24301;SDS011;12421;49.732;20.078;2024-03-02T21:12:11;93.60;;;52.40;;
24301;SDS011;12421;49.732;20.078;2024-03-02T21:22:15;90.10;;;55.70;;
24301;SDS011;12421;49.732;20.078;2024-03-02T21:32:19;115.00;;;70.20;;
24301;SDS011;12421;49.732;20.078;2024-03-02T21:42:22;132.80;;;82.10;;
24301;SDS011;12421;49.732;20.078;2024-03-02T21:52:26;151.40;;;88.10;;
24301;SDS011;12421;49.732;20.078;2024-03-02T22:02:29;142.40;;;87.80;;
24301;SDS011;12421;49.732;20.078;2024-03-02T22:12:32;133.10;;;82.10;;
24301;SDS011;12421;49.732;20.078;2024-03-02T22:22:36;126.30;;;70.70;;
24301;SDS011;12421;49.732;20.078;2024-03-02T22:32:42;144.90;;;85.70;;
24301;SDS011;12421;49.732;20.078;2024-03-02T22:42:47;147.70;;;92.50;;
24301;SDS011;12421;49.732;20.078;2024-03-02T22:52:50;128.20;;;77.10;;
24301;SDS011;12421;49.732;20.078;2024-03-02T23:02:54;128.20;;;77.20;;
24301;SDS011;12421;49.732;20.078;2024-03-02T23:12:58;111.80;;;69.30;;
24301;SDS011;12421;49.732;20.078;2024-03-02T23:23:01;99.50;;;61.00;;
24301;SDS011;12421;49.732;20.078;2024-03-02T23:33:07;102.50;;;62.90;;
24301;SDS011;12421;49.732;20.078;2024-03-02T23:43:11;102.70;;;62.90;;
24301;SDS011;12421;49.732;20.078;2024-03-02T23:53:16;79.50;;;49.20;;
